Terminal Aerodrome Forecast
Issued by NWS

Home | Current Version | Previous Version | Graphics & Text | Print | Product List | Glossary On
Versions: 1 2 3 4 5 6 7 8 9 10 11 12 13 14 15 16
000
FTUS43 KBIS 262021 AAA
TAFDIK
TAF AMD
KDIK 262021Z 2620/2718 28009KT P6SM VCTS SCT050CB BKN060
     FM270200 31005KT P6SM SCT060 BKN080
     FM270900 29004KT P6SM BKN060
     FM271400 33005KT P6SM SCT040
     FM271600 34006KT P6SM BKN050=

USA.gov is the U.S. government's official web portal to all federal, state and local government web resources and services.